Washington, Texas
Current Conditions -  °F | °C
As of 9:15 AM on Thursday 30 Oct 2014 (Local Time) from K11R Reporting Station
Clear Clear  
Wind Chill: 61°   Ceiling: Unl
Heat Index: 61°   Visibility: 10mi
Dew Point: 54°   Wind: 5mph
Humidity: 78%   Direction: 90°E
Pressure: 30.16"   Gusts: NA
Location:  30.33°N, 96.16°W
Report Text: K11R 301415Z AUTO 09004KT 10SM CLR 16/12 A3016 RMK AO2 T01610122
Loading
Personal Weather Stations






























Interactive Weather Map
Tropical Storm Tracking
New forecast layout! Learn more

10-Day Weather Forecast

Advertisements
Track Severe Weather on mobile